Time;durP1;ratioP1;P1;durP2;ratioP2;P2;SDS_P1;SDS_P2;PMS_P1;PMS_P2;Temp;Humidity;BMP_temperature;BMP_pressure;BME280_temperature;BME280_humidity;BME280_pressure;Samples;Min_cycle;Max_cycle;Signal;HPM_P1;HPM_P2
2022/04/25 00:01:27;;;;;;;47.10;35.25;;;;;;;7.35;99.10;96774.38;1751152;81;21599;-56
2022/04/25 00:03:53;;;;;;;56.77;33.58;;;;;;;7.29;98.66;96775.52;1761973;80;20897;-56
2022/04/25 00:06:19;;;;;;;52.48;28.17;;;;;;;7.27;99.48;96776.91;1728772;81;21016;-57
2022/04/25 00:08:45;;;;;;;51.80;31.70;;;;;;;7.25;100.00;96774.48;1727542;82;20888;-57
2022/04/25 00:11:11;;;;;;;49.93;30.12;;;;;;;7.20;99.67;96771.06;1742612;82;21581;-56
2022/04/25 00:13:37;;;;;;;45.20;21.70;;;;;;;7.14;99.05;96776.25;1744528;82;20924;-57
2022/04/25 00:16:03;;;;;;;29.48;18.52;;;;;;;7.07;98.29;96768.51;1744619;82;20932;-57
2022/04/25 00:18:29;;;;;;;43.90;23.87;;;;;;;7.00;98.38;96776.92;1752563;80;20964;-57
2022/04/25 00:20:55;;;;;;;32.33;19.60;;;;;;;6.97;98.30;96786.13;1748123;81;20834;-57
2022/04/25 00:23:23;;;;;;;22.73;14.55;;;;;;;6.97;100.00;96779.40;1744499;82;22438;-57
2022/04/25 00:25:49;;;;;;;22.65;14.00;;;;;;;7.00;100.00;96785.55;1744394;82;21006;-57
2022/04/25 00:28:15;;;;;;;23.85;14.85;;;;;;;7.03;100.00;96780.95;1744754;82;20964;-56
2022/04/25 00:30:41;;;;;;;21.27;13.88;;;;;;;7.06;100.00;96779.02;1744491;82;20897;-57
2022/04/25 00:33:06;;;;;;;23.15;13.80;;;;;;;7.11;100.00;96778.98;1744755;82;20905;-56
2022/04/25 00:35:32;;;;;;;25.08;13.32;;;;;;;7.13;100.00;96774.65;1744569;82;21086;-56
2022/04/25 00:37:58;;;;;;;20.27;13.48;;;;;;;7.15;100.00;96775.16;1744624;82;21511;-56
2022/04/25 00:40:25;;;;;;;25.97;15.53;;;;;;;7.14;100.00;96773.55;1744432;82;20952;-56
2022/04/25 00:42:50;;;;;;;25.50;13.13;;;;;;;7.18;100.00;96783.48;1744576;82;21564;-57
2022/04/25 00:45:17;;;;;;;36.25;19.35;;;;;;;7.22;100.00;96782.34;1744555;82;20980;-56
2022/04/25 00:47:43;;;;;;;51.05;22.13;;;;;;;7.19;99.91;96782.39;1744528;82;22264;-57
2022/04/25 00:50:10;;;;;;;41.88;19.42;;;;;;;7.21;99.12;96776.16;1744060;82;21076;-56
2022/04/25 00:52:36;;;;;;;29.82;18.17;;;;;;;7.22;98.96;96777.77;1748015;81;20994;-57
2022/04/25 00:55:09;;;;;;;24.77;15.25;;;;;;;7.24;98.78;96776.92;1744694;82;22214;-56
2022/04/25 00:57:36;;;;;;;28.42;17.90;;;;;;;7.32;98.77;96774.14;1744609;82;21020;-57
2022/04/25 01:00:09;;;;;;;23.92;15.25;;;;;;;7.37;98.81;96776.78;1744423;82;21586;-56
2022/04/25 01:02:35;;;;;;;27.70;15.55;;;;;;;7.39;98.71;96774.59;1746481;81;20973;-57
2022/04/25 01:05:01;;;;;;;26.35;14.98;;;;;;;7.37;99.96;96780.83;1746028;80;20980;-56
2022/04/25 01:07:27;;;;;;;19.55;12.78;;;;;;;7.32;99.37;96780.33;1731770;81;20853;-57
2022/04/25 01:09:55;;;;;;;17.82;13.30;;;;;;;7.26;99.38;96772.59;1755270;80;20966;-56
2022/04/25 01:12:21;;;;;;;21.75;12.28;;;;;;;7.21;98.87;96773.47;1734371;82;21547;-56
2022/04/25 01:14:55;;;;;;;21.97;14.43;;;;;;;7.16;98.02;96774.86;1730702;82;20929;-56
2022/04/25 01:17:21;;;;;;;23.83;13.98;;;;;;;7.12;98.03;96775.73;1717707;82;21059;-56
2022/04/25 01:19:47;;;;;;;24.55;13.75;;;;;;;7.10;97.97;96773.34;1744627;82;20929;-57
2022/04/25 01:22:14;;;;;;;31.20;17.10;;;;;;;7.09;97.92;96778.44;1744350;82;20854;-57
2022/04/25 01:27:26;;;;;;;15.35;10.23;;;;;;;7.00;99.23;96766.15;1733733;82;21032;-57
2022/04/25 01:29:54;;;;;;;18.40;12.23;;;;;;;6.87;99.31;96766.05;1703495;82;21064;-57
2022/04/25 01:32:23;;;;;;;21.50;12.40;;;;;;;6.78;99.45;96768.02;1755081;81;21095;-57
2022/04/25 01:34:49;;;;;;;20.37;11.80;;;;;;;6.73;99.30;96760.53;1755915;80;21556;-57
2022/04/25 01:37:17;;;;;;;26.52;14.78;;;;;;;6.66;99.29;96759.52;1744241;82;21497;-57
2022/04/25 01:39:49;;;;;;;26.60;14.33;;;;;;;6.56;99.19;96760.97;1744342;82;20989;-57
2022/04/25 01:42:15;;;;;;;19.95;13.38;;;;;;;6.48;99.15;96762.92;1744465;82;21048;-57
2022/04/25 01:44:41;;;;;;;20.95;12.18;;;;;;;6.41;99.36;96765.14;1744313;82;21536;-57
2022/04/25 01:47:07;;;;;;;14.83;11.08;;;;;;;6.34;99.18;96772.77;1744412;82;20957;-57
2022/04/25 01:49:33;;;;;;;20.68;13.58;;;;;;;6.27;98.84;96773.62;1754153;80;21292;-57
2022/04/25 01:52:05;;;;;;;25.97;12.50;;;;;;;6.17;98.46;96775.31;1736941;82;20991;-56
2022/04/25 01:54:32;;;;;;;18.80;11.55;;;;;;;6.07;99.84;96772.71;1746616;80;20976;-57
2022/04/25 01:56:58;;;;;;;19.55;12.18;;;;;;;6.04;100.00;96778.63;1724486;82;21000;-56
2022/04/25 01:59:24;;;;;;;21.95;12.80;;;;;;;6.12;99.15;96777.23;1741456;82;20882;-56
2022/04/25 02:01:53;;;;;;;25.82;14.58;;;;;;;6.22;99.54;96783.87;1744378;82;21559;-56
2022/04/25 02:04:21;;;;;;;34.95;15.05;;;;;;;6.26;99.89;96778.75;1758744;80;20997;-57
2022/04/25 02:06:48;;;;;;;30.25;15.40;;;;;;;6.25;100.00;96789.25;1752641;81;21043;-56
2022/04/25 02:09:14;;;;;;;24.12;14.78;;;;;;;6.23;100.00;96784.92;1744170;82;21552;-56
2022/04/25 02:11:40;;;;;;;25.50;15.53;;;;;;;6.23;100.00;96786.27;1744540;82;20964;-57
2022/04/25 02:14:06;;;;;;;28.60;16.42;;;;;;;6.23;100.00;96782.78;1744187;82;21749;-57
2022/04/25 02:16:32;;;;;;;27.98;12.95;;;;;;;6.25;100.00;96786.02;1728492;82;20873;-56
2022/04/25 02:18:58;;;;;;;27.13;13.90;;;;;;;6.16;100.00;96787.16;1737778;82;20885;-56
2022/04/25 02:21:24;;;;;;;21.87;12.88;;;;;;;6.16;100.00;96790.39;1739749;82;20895;-56
2022/04/25 02:23:50;;;;;;;22.85;12.33;;;;;;;6.12;100.00;96786.64;1739368;82;21047;-57
2022/04/25 02:26:16;;;;;;;36.30;15.25;;;;;;;6.11;100.00;96789.88;1749065;81;21540;-57
2022/04/25 02:28:41;;;;;;;31.02;14.63;;;;;;;6.03;100.00;96795.05;1735493;82;20924;-56
2022/04/25 02:31:07;;;;;;;27.82;13.48;;;;;;;5.99;100.00;96795.36;1744634;82;20941;-56
2022/04/25 02:33:34;;;;;;;34.30;14.83;;;;;;;5.99;100.00;96795.36;1753114;80;21472;-57
2022/04/25 02:36:05;;;;;;;26.97;14.10;;;;;;;5.94;100.00;96787.58;1747641;81;21405;-57
2022/04/25 02:38:33;;;;;;;23.67;12.75;;;;;;;5.96;100.00;96798.59;1737878;81;21131;-57
2022/04/25 02:41:05;;;;;;;25.35;12.68;;;;;;;5.89;100.00;96796.17;1727173;82;21027;-57
2022/04/25 02:43:40;;;;;;;21.40;12.07;;;;;;;5.85;100.00;96797.29;1728120;82;21032;-57
2022/04/25 02:46:09;;;;;;;26.93;14.33;;;;;;;5.85;100.00;96797.83;1738029;81;21051;-57
2022/04/25 02:48:35;;;;;;;21.80;12.90;;;;;;;5.86;100.00;96792.71;1742838;81;21031;-57
2022/04/25 02:51:03;;;;;;;21.68;12.07;;;;;;;5.91;100.00;96800.25;1749898;81;21160;-57
2022/04/25 02:53:30;;;;;;;21.60;11.53;;;;;;;5.94;100.00;96794.84;1751372;80;20981;-57
2022/04/25 02:55:56;;;;;;;27.00;12.55;;;;;;;5.96;100.00;96798.59;1735693;81;21442;-57
2022/04/25 02:58:23;;;;;;;27.67;13.70;;;;;;;5.93;100.00;96795.92;1744583;82;20854;-57
2022/04/25 03:00:49;;;;;;;29.35;13.90;;;;;;;5.95;100.00;96807.20;1744467;82;21000;-57
2022/04/25 03:03:18;;;;;;;27.25;12.80;;;;;;;5.95;100.00;96797.79;1750999;80;21336;-57
2022/04/25 03:05:46;;;;;;;28.57;14.55;;;;;;;5.92;100.00;96807.23;1734987;81;21016;-57
2022/04/25 03:08:17;;;;;;;28.73;12.63;;;;;;;5.88;100.00;96798.06;1727163;81;21000;-57
2022/04/25 03:10:43;;;;;;;25.08;13.15;;;;;;;5.89;100.00;96802.36;1728352;82;20992;-57
2022/04/25 03:13:10;;;;;;;27.30;12.20;;;;;;;5.89;100.00;96808.27;1744630;82;21039;-57
2022/04/25 03:15:38;;;;;;;22.58;12.35;;;;;;;5.87;100.00;96799.69;1744431;82;22246;-57
2022/04/25 03:18:05;;;;;;;33.80;12.90;;;;;;;5.87;100.00;96806.41;1744591;82;20966;-57
2022/04/25 03:20:34;;;;;;;25.55;13.65;;;;;;;5.90;100.00;96806.71;1744267;82;21005;-58
2022/04/25 03:23:00;;;;;;;25.17;14.35;;;;;;;5.87;100.00;96809.91;1744407;82;20978;-57
2022/04/25 03:25:27;;;;;;;27.37;14.33;;;;;;;5.86;100.00;96809.64;1754450;81;21015;-57
2022/04/25 03:27:53;;;;;;;28.42;15.30;;;;;;;5.90;100.00;96814.77;1741494;81;21466;-57
2022/04/25 03:30:19;;;;;;;22.52;11.10;;;;;;;5.91;100.00;96811.00;1727470;81;21001;-57
2022/04/25 03:32:47;;;;;;;25.40;13.53;;;;;;;5.93;100.00;96803.99;1724405;82;20980;-57
2022/04/25 03:35:14;;;;;;;33.55;17.23;;;;;;;5.91;100.00;96808.86;1727854;82;20984;-57
2022/04/25 03:37:40;;;;;;;25.32;16.32;;;;;;;5.87;100.00;96807.22;1742946;82;21056;-57
2022/04/25 03:40:09;;;;;;;31.42;17.57;;;;;;;5.89;100.00;96813.11;1744326;82;21566;-57
2022/04/25 03:42:38;;;;;;;24.12;13.30;;;;;;;5.91;100.00;96812.89;1718600;82;20992;-57
2022/04/25 03:45:09;;;;;;;28.60;14.68;;;;;;;5.92;100.00;96814.49;1744011;82;21427;-57
2022/04/25 03:47:38;;;;;;;22.93;14.95;;;;;;;5.92;100.00;96811.26;1744262;82;21048;-57
2022/04/25 03:50:07;;;;;;;39.03;18.48;;;;;;;5.93;100.00;96813.41;1744171;82;21453;-57
2022/04/25 03:52:37;;;;;;;28.75;15.58;;;;;;;5.96;100.00;96814.73;1749222;81;21084;-57
2022/04/25 03:57:52;;;;;;;;;;;;;;;5.92;100.00;96816.64;1732287;82;20996;-57
2022/04/25 04:00:18;;;;;;;23.95;12.78;;;;;;;5.92;100.00;96812.61;1734987;82;20311;-57
2022/04/25 04:02:44;;;;;;;22.65;13.50;;;;;;;5.92;100.00;96818.52;1744594;82;20921;-57
2022/04/25 04:05:11;;;;;;;29.72;13.93;;;;;;;5.91;100.00;96827.67;1744556;82;21571;-57
2022/04/25 04:07:37;;;;;;;27.55;14.28;;;;;;;5.89;100.00;96824.41;1744590;82;20992;-57
2022/04/25 04:10:04;;;;;;;24.05;12.65;;;;;;;5.81;100.00;96820.45;1744471;82;21021;-57
2022/04/25 04:12:38;;;;;;;22.80;14.95;;;;;;;5.87;100.00;96826.58;1744313;82;21426;-57
2022/04/25 04:15:02;;;;;;;22.62;12.15;;;;;;;5.95;100.00;96827.37;1743473;82;21024;-57
2022/04/25 04:17:28;;;;;;;23.92;12.58;;;;;;;6.02;100.00;96829.75;1744465;82;21715;-57
2022/04/25 04:19:54;;;;;;;27.98;15.13;;;;;;;6.10;100.00;96834.00;1739715;82;21011;-57
2022/04/25 04:22:21;;;;;;;23.40;14.28;;;;;;;6.23;100.00;96836.59;1754768;81;20845;-57
2022/04/25 04:24:48;;;;;;;22.65;13.80;;;;;;;6.23;100.00;96836.59;1750193;80;21416;-57
2022/04/25 04:27:14;;;;;;;25.80;15.08;;;;;;;6.29;100.00;96837.36;1739008;82;21060;-57
2022/04/25 04:29:41;;;;;;;26.15;14.03;;;;;;;6.33;100.00;96833.84;1744311;82;21458;-57
2022/04/25 04:32:08;;;;;;;25.35;14.50;;;;;;;6.36;100.00;96832.47;1735669;82;22093;-57
2022/04/25 04:34:35;;;;;;;23.00;14.85;;;;;;;6.36;99.93;96831.92;1726631;82;21378;-57
2022/04/25 04:37:02;;;;;;;23.47;14.78;;;;;;;6.36;100.00;96835.16;1727133;82;21076;-57
2022/04/25 04:39:28;;;;;;;25.65;14.23;;;;;;;6.40;100.00;96838.34;1742162;82;21005;-58
2022/04/25 04:41:54;;;;;;;24.70;13.80;;;;;;;6.43;100.00;96838.34;1736917;82;21033;-57
2022/04/25 04:44:20;;;;;;;19.55;12.07;;;;;;;6.49;100.00;96845.27;1725696;82;20892;-57
2022/04/25 04:46:47;;;;;;;19.52;12.80;;;;;;;6.55;99.87;96846.03;1735101;82;20893;-57
2022/04/25 04:49:13;;;;;;;24.50;14.68;;;;;;;6.57;99.68;96858.12;1745734;81;21072;-57
2022/04/25 04:51:39;;;;;;;19.67;11.38;;;;;;;6.60;99.78;96861.61;1745027;81;21468;-57
2022/04/25 04:54:05;;;;;;;18.35;11.53;;;;;;;6.66;99.79;96867.19;1747481;81;20965;-57
2022/04/25 04:56:32;;;;;;;25.60;13.85;;;;;;;6.70;99.78;96870.14;1751808;81;21566;-57
2022/04/25 04:58:59;;;;;;;26.87;13.88;;;;;;;6.74;100.00;96869.28;1746903;80;21012;-57
2022/04/25 05:01:26;;;;;;;21.15;13.20;;;;;;;6.82;100.00;96875.14;1748969;81;21040;-56
2022/04/25 05:03:55;;;;;;;15.88;10.53;;;;;;;6.91;100.00;96875.59;1744469;82;21052;-57
2022/04/25 05:06:21;;;;;;;19.75;13.62;;;;;;;6.94;99.56;96872.35;1719560;81;21685;-57
2022/04/25 05:08:47;;;;;;;24.63;14.55;;;;;;;6.96;99.47;96874.20;1719868;82;20993;-57
2022/04/25 05:11:13;;;;;;;30.70;16.60;;;;;;;6.96;99.01;96876.91;1742697;81;20908;-57
2022/04/25 05:13:39;;;;;;;30.90;19.52;;;;;;;6.92;98.75;96881.78;1724530;82;21489;-57
2022/04/25 05:16:06;;;;;;;20.52;13.45;;;;;;;6.90;98.61;96883.41;1746486;81;20900;-57
2022/04/25 05:18:33;;;;;;;24.30;15.18;;;;;;;6.94;98.38;96884.47;1744348;82;21635;-57
2022/04/25 05:21:00;;;;;;;26.48;18.42;;;;;;;6.93;98.02;96887.45;1740625;82;21508;-57
2022/04/25 05:23:26;;;;;;;23.90;14.30;;;;;;;6.90;98.10;96883.95;1744363;82;21123;-57
2022/04/25 05:25:53;;;;;;;21.90;14.43;;;;;;;6.97;98.19;96885.78;1744572;82;21566;-57
2022/04/25 05:28:19;;;;;;;27.87;15.93;;;;;;;7.03;97.93;96888.70;1751162;80;21439;-57
2022/04/25 05:30:46;;;;;;;24.20;17.55;;;;;;;7.03;98.03;96895.43;1756383;81;21448;-57
2022/04/25 05:33:13;;;;;;;24.72;16.62;;;;;;;7.02;97.84;96898.67;1761689;80;21614;-57
2022/04/25 05:35:38;;;;;;;27.95;18.10;;;;;;;7.01;97.79;96898.96;1740458;81;21024;-57
2022/04/25 05:38:10;;;;;;;26.87;16.93;;;;;;;7.00;97.87;96895.44;1744467;82;20854;-57
2022/04/25 05:40:36;;;;;;;31.85;17.85;;;;;;;7.00;97.87;96898.13;1736569;82;21012;-57
2022/04/25 05:43:04;;;;;;;50.92;32.53;;;;;;;7.03;97.98;96897.58;1740214;82;21052;-57
2022/04/25 05:45:30;;;;;;;27.52;18.65;;;;;;;7.08;97.97;96902.91;1743203;81;21048;-57
2022/04/25 05:47:57;;;;;;;25.35;17.62;;;;;;;7.16;97.93;96906.87;1744429;82;20972;-57
2022/04/25 05:53:11;;;;;;;28.90;19.20;;;;;;;7.28;97.91;96908.66;1730322;82;21012;-57
2022/04/25 05:55:37;;;;;;;28.02;15.78;;;;;;;7.34;97.80;96906.69;1744264;82;21358;-57
2022/04/25 05:58:04;;;;;;;26.62;16.10;;;;;;;7.39;97.72;96913.94;1744416;82;20877;-57
2022/04/25 06:00:31;;;;;;;23.42;15.55;;;;;;;7.39;97.70;96909.89;1744350;82;20988;-57
2022/04/25 06:02:57;;;;;;;30.85;17.02;;;;;;;7.38;97.58;96915.02;1741778;81;21403;-57
2022/04/25 06:05:24;;;;;;;24.85;14.87;;;;;;;7.34;97.72;96918.27;1705847;82;20897;-57
2022/04/25 06:07:50;;;;;;;24.57;14.50;;;;;;;7.37;97.75;96916.12;1732573;81;21452;-57
2022/04/25 06:10:18;;;;;;;23.05;14.98;;;;;;;7.39;97.90;96913.94;1756813;80;21011;-57
2022/04/25 06:12:49;;;;;;;33.98;17.67;;;;;;;7.41;97.99;96919.28;1727656;81;20961;-57
2022/04/25 06:15:16;;;;;;;23.87;16.25;;;;;;;7.46;98.49;96919.25;1742824;81;21063;-57
2022/04/25 06:17:42;;;;;;;22.25;14.20;;;;;;;7.54;98.25;96911.08;1736467;81;21500;-57
2022/04/25 06:20:09;;;;;;;24.25;15.88;;;;;;;7.57;98.08;96903.76;1742679;80;21140;-57
2022/04/25 06:22:36;;;;;;;24.77;16.80;;;;;;;7.56;98.10;96903.50;1731599;82;21016;-57
2022/04/25 06:25:03;;;;;;;28.50;19.02;;;;;;;7.63;98.11;96907.46;1715556;81;21001;-57
2022/04/25 06:27:29;;;;;;;35.10;20.50;;;;;;;7.72;98.05;96913.57;1725267;81;21049;-56
2022/04/25 06:29:56;;;;;;;38.02;20.62;;;;;;;7.79;98.06;96914.03;1745218;81;21050;-57
2022/04/25 06:32:22;;;;;;;25.20;17.40;;;;;;;7.82;98.17;96907.50;1747513;81;21394;-58
2022/04/25 06:34:48;;;;;;;28.50;19.20;;;;;;;7.86;98.14;96903.16;1724416;81;21032;-58
2022/04/25 06:37:14;;;;;;;26.73;19.55;;;;;;;7.90;98.25;96908.76;1726297;81;20969;-57
2022/04/25 06:39:41;;;;;;;34.25;18.90;;;;;;;7.97;98.26;96895.73;1740361;80;20937;-58
2022/04/25 06:42:08;;;;;;;23.52;15.85;;;;;;;8.04;98.53;96896.72;1747211;81;21110;-58
2022/04/25 06:44:34;;;;;;;23.00;16.27;;;;;;;8.16;98.38;96888.98;1739425;81;21871;-58
2022/04/25 06:47:00;;;;;;;22.35;14.25;;;;;;;8.31;98.16;96889.33;1738919;81;21114;-57
2022/04/25 06:49:27;;;;;;;31.40;20.75;;;;;;;8.45;98.18;96888.86;1740746;80;20945;-57
2022/04/25 06:51:59;;;;;;;30.48;22.05;;;;;;;8.65;98.13;96888.56;1732047;81;21499;-58
2022/04/25 06:54:26;;;;;;;29.42;21.30;;;;;;;8.78;97.92;96892.39;1736703;81;21071;-58
2022/04/25 06:56:53;;;;;;;28.27;20.85;;;;;;;8.96;97.81;96892.09;1731623;81;21148;-57
2022/04/25 06:59:20;;;;;;;28.62;18.40;;;;;;;9.15;97.45;96900.98;1739425;80;21491;-58
2022/04/25 07:01:46;;;;;;;35.68;21.12;;;;;;;9.31;97.42;96905.02;1736587;81;21091;-58
2022/04/25 07:04:12;;;;;;;28.05;18.98;;;;;;;9.37;96.76;96902.20;1738414;80;20985;-58
2022/04/25 07:06:39;;;;;;;32.65;19.55;;;;;;;9.40;96.17;96900.23;1738891;81;20978;-57
2022/04/25 07:09:06;;;;;;;28.05;18.17;;;;;;;9.33;96.28;96908.21;1740748;81;21105;-57
2022/04/25 07:11:33;;;;;;;23.55;17.62;;;;;;;9.31;95.96;96909.06;1743370;81;21097;-57
2022/04/25 07:14:05;;;;;;;33.45;20.27;;;;;;;9.05;96.01;96916.78;1741717;80;21446;-57
2022/04/25 07:16:29;;;;;;;32.28;20.70;;;;;;;9.05;96.01;96916.78;1737893;81;21098;-58
2022/04/25 07:18:55;;;;;;;31.50;22.15;;;;;;;9.00;95.99;96922.30;1740516;79;20977;-57
2022/04/25 07:29:34;;;;;;;29.92;20.25;;;;;;;8.73;96.81;96910.85;1741463;81;21040;-57
2022/04/25 07:32:00;;;;;;;31.27;21.25;;;;;;;8.77;96.61;96915.11;1747483;81;20956;-58
2022/04/25 07:34:26;;;;;;;30.43;21.27;;;;;;;8.79;96.97;96914.80;1743793;79;21435;-57
2022/04/25 07:36:53;;;;;;;28.27;19.05;;;;;;;8.79;96.95;96916.95;1740762;81;20992;-58
2022/04/25 07:39:21;;;;;;;25.85;16.67;;;;;;;8.81;96.54;96913.44;1736307;81;21103;-58
2022/04/25 07:41:47;;;;;;;26.33;16.70;;;;;;;8.80;97.97;96908.30;1727040;82;21501;-58
2022/04/25 07:44:13;;;;;;;22.20;14.35;;;;;;;8.87;97.79;96906.03;1724514;81;21051;-58
2022/04/25 07:46:45;;;;;;;25.52;16.30;;;;;;;8.93;98.39;96908.36;1737102;81;22226;-58
2022/04/25 07:49:09;;;;;;;28.62;19.67;;;;;;;9.08;97.59;96908.66;1732857;81;21405;-57
2022/04/25 07:51:37;;;;;;;32.75;24.07;;;;;;;9.22;97.02;96912.17;1738881;81;20997;-58
2022/04/25 07:54:04;;;;;;;49.63;33.58;;;;;;;9.30;96.95;96914.20;1739104;79;21048;-58
2022/04/25 07:56:32;;;;;;;44.03;31.85;;;;;;;9.57;97.00;96916.16;1740365;81;21547;-57
2022/04/25 07:59:05;;;;;;;48.30;32.40;;;;;;;9.57;97.00;96916.16;1739885;81;40014;-58
2022/04/25 08:01:28;;;;;;;111.33;92.07;;;;;;;9.67;96.56;96904.33;1728300;82;21444;-58
2022/04/25 08:03:55;;;;;;;51.23;34.33;;;;;;;9.95;96.45;96915.14;1748246;79;21020;-58
2022/04/25 08:06:21;;;;;;;48.68;31.85;;;;;;;10.12;96.20;96917.47;1728630;81;21142;-57
2022/04/25 08:08:49;;;;;;;46.18;30.08;;;;;;;10.37;96.03;96915.36;1748066;80;21453;-58
2022/04/25 08:11:16;;;;;;;34.92;22.42;;;;;;;10.64;95.90;96917.18;1730009;82;21889;-57
2022/04/25 08:19:13;;;;;;;25.12;17.48;;;;;;;11.40;94.75;96914.50;1742214;80;21138;-58
2022/04/25 08:21:41;;;;;;;41.37;28.10;;;;;;;11.62;93.96;96923.92;1747462;81;21480;-57
2022/04/25 08:24:07;;;;;;;45.67;31.57;;;;;;;11.64;94.04;96912.78;1743222;81;21199;-57
2022/04/25 08:26:33;;;;;;;19.80;14.33;;;;;;;11.89;94.48;96912.67;1739196;81;20996;-58
2022/04/25 08:29:00;;;;;;;12.28;9.38;;;;;;;12.12;93.75;96916.30;1739207;80;20976;-57
2022/04/25 08:31:27;;;;;;;20.60;15.48;;;;;;;12.14;92.27;96913.30;1739143;81;20960;-58
2022/04/25 08:33:54;;;;;;;17.87;11.40;;;;;;;12.47;92.12;96914.20;1727828;81;21111;-57
2022/04/25 08:36:20;;;;;;;20.77;11.53;;;;;;;12.86;91.82;96919.50;1723687;81;21036;-57
2022/04/25 08:38:46;;;;;;;12.53;11.00;;;;;;;13.39;90.17;96916.96;1739718;80;20991;-58
2022/04/25 08:41:17;;;;;;;15.40;10.48;;;;;;;13.81;87.92;96922.59;1738217;81;21011;-58
2022/04/25 08:43:43;;;;;;;13.62;10.88;;;;;;;14.13;88.02;96919.80;1734668;81;21004;-57
2022/04/25 08:46:10;;;;;;;14.40;9.95;;;;;;;14.51;87.04;96916.21;1706145;82;20968;-58
2022/04/25 08:48:38;;;;;;;9.63;7.37;;;;;;;14.68;83.82;96905.97;1752180;80;21020;-58
2022/04/25 08:51:04;;;;;;;7.72;5.30;;;;;;;14.86;82.82;96907.20;1733281;80;21037;-57
2022/04/25 08:53:32;;;;;;;8.13;5.10;;;;;;;14.92;81.99;96908.59;1724997;79;21090;-57
2022/04/25 08:56:00;;;;;;;8.90;6.05;;;;;;;15.19;82.56;96909.38;1740258;81;21392;-58
2022/04/25 08:58:26;;;;;;;8.60;5.75;;;;;;;15.63;82.11;96904.84;1688869;80;21169;-57
2022/04/25 09:00:52;;;;;;;10.53;5.65;;;;;;;15.95;77.96;96905.34;1744268;81;21033;-57
2022/04/25 09:03:18;;;;;;;7.72;4.05;;;;;;;15.83;78.83;96908.64;1762802;80;20849;-58
2022/04/25 09:05:44;;;;;;;9.80;6.97;;;;;;;15.74;80.14;96905.45;1745825;81;21445;-58
2022/04/25 09:08:10;;;;;;;9.55;6.10;;;;;;;15.55;78.65;96913.90;1749655;79;20873;-57
2022/04/25 09:10:36;;;;;;;18.98;15.98;;;;;;;15.38;80.38;96908.89;1747854;80;21330;-58
2022/04/25 09:13:02;;;;;;;15.23;9.73;;;;;;;15.04;78.11;96914.12;1747150;80;21476;-58
2022/04/25 09:15:28;;;;;;;10.88;7.12;;;;;;;14.69;77.48;96919.03;1747474;79;21002;-58
2022/04/25 09:17:55;;;;;;;7.10;4.45;;;;;;;14.58;79.02;96920.58;1725411;81;21008;-57
2022/04/25 09:20:21;;;;;;;8.00;6.67;;;;;;;14.52;79.68;96924.05;1741199;80;21558;-58
2022/04/25 09:22:47;;;;;;;7.50;5.80;;;;;;;14.43;79.71;96931.45;1737715;80;21040;-57
2022/04/25 09:25:15;;;;;;;7.42;4.40;;;;;;;14.14;76.22;96930.13;1721196;80;21861;-58
2022/04/25 09:27:41;;;;;;;8.50;6.07;;;;;;;14.14;79.06;96930.13;1746044;80;21481;-57
2022/04/25 09:30:20;;;;;;;6.37;4.95;;;;;;;14.09;79.88;96929.17;1736690;80;21055;-57
2022/04/25 09:32:50;;;;;;;14.35;9.10;;;;;;;14.05;80.09;96929.61;1737842;80;21108;-58
2022/04/25 09:35:33;;;;;;;37.13;26.40;;;;;;;14.00;79.60;96931.70;1738145;80;21533;-57
2022/04/25 09:38:01;;;;;;;11.43;7.62;;;;;;;13.96;79.11;96934.30;1737504;80;21123;-58
2022/04/25 09:40:29;;;;;;;5.10;2.97;;;;;;;13.92;78.28;96940.71;1743505;80;21153;-57
2022/04/25 09:43:14;;;;;;;17.47;12.33;;;;;;;13.92;78.53;96934.70;1735761;80;22253;-58
2022/04/25 09:45:43;;;;;;;16.25;12.28;;;;;;;13.89;78.25;96935.93;1725918;81;21406;-58
2022/04/25 09:48:15;;;;;;;6.87;4.75;;;;;;;13.94;78.76;96946.09;1743722;80;21012;-58
2022/04/25 09:50:42;;;;;;;10.55;7.17;;;;;;;13.95;77.81;96944.95;1750818;80;21147;-56
2022/04/25 09:53:09;;;;;;;16.50;10.75;;;;;;;13.99;77.73;96945.89;1750469;80;21102;-57
2022/04/25 09:55:38;;;;;;;11.78;6.83;;;;;;;13.96;77.02;96944.39;1734669;81;21580;-58
2022/04/25 09:58:17;;;;;;;;;;;;;;;13.90;76.85;96943.77;1748308;80;21146;-57
2022/04/25 10:00:41;;;;;;;27.22;14.07;;;;;;;13.77;75.64;96941.51;1757345;80;20202;-57
2022/04/25 10:03:08;;;;;;;58.30;33.60;;;;;;;13.91;76.46;96945.92;1737822;81;22028;-58
2022/04/25 10:05:46;;;;;;;53.78;30.23;;;;;;;14.04;77.49;96942.20;1716639;80;21083;-58
2022/04/25 10:08:16;;;;;;;25.07;16.00;;;;;;;14.07;76.21;96949.70;1745805;80;21100;-58
2022/04/25 10:10:50;;;;;;;25.45;16.17;;;;;;;13.96;75.99;96957.45;1739516;81;21402;-57
2022/04/25 10:13:16;;;;;;;26.97;16.27;;;;;;;14.01;76.61;96948.28;1732176;80;21056;-58
2022/04/25 10:15:43;;;;;;;15.03;10.10;;;;;;;13.81;75.45;96951.17;1747242;80;21066;-58
2022/04/25 10:18:09;;;;;;;15.65;10.50;;;;;;;13.74;76.27;96953.59;1748402;79;21070;-58
2022/04/25 10:20:36;;;;;;;13.10;8.63;;;;;;;13.67;76.25;96957.38;1747114;80;22720;-58
2022/04/25 10:23:05;;;;;;;10.82;6.35;;;;;;;13.73;77.40;96959.60;1746044;80;21907;-58
2022/04/25 10:25:32;;;;;;;5.90;4.20;;;;;;;13.76;77.36;96950.80;1739413;80;21173;-57
2022/04/25 10:28:01;;;;;;;5.80;3.72;;;;;;;13.74;77.32;96958.47;1747811;81;22116;-57
2022/04/25 10:30:36;;;;;;;3.67;2.50;;;;;;;13.71;76.92;96963.22;1744550;80;21110;-58
2022/04/25 10:33:21;;;;;;;4.97;2.98;;;;;;;13.67;77.61;96965.55;1741410;81;21050;-58
2022/04/25 10:35:49;;;;;;;9.48;4.42;;;;;;;13.66;77.72;96963.95;1644514;84;21062;-57
2022/04/25 10:38:47;;;;;;;10.00;8.03;;;;;;;13.68;77.67;96969.33;1714764;80;21398;-58
2022/04/25 10:44:24;;;;;;;5.12;4.00;;;;;;;13.65;77.10;96975.40;1744568;81;21073;-57
2022/04/25 10:47:18;;;;;;;6.47;4.00;;;;;;;13.61;77.35;96979.91;1739703;81;21100;-57
2022/04/25 10:49:59;;;;;;;5.05;3.67;;;;;;;13.53;77.58;96982.89;1743525;80;21607;-58
2022/04/25 10:52:42;;;;;;;4.42;2.60;;;;;;;13.30;77.12;96995.64;1745032;80;21128;-58
2022/04/25 10:55:21;;;;;;;8.18;4.35;;;;;;;13.12;77.34;97000.27;1723010;81;21500;-58
2022/04/25 10:58:08;;;;;;;4.87;3.00;;;;;;;12.96;77.71;96995.86;1753120;81;21091;-57
2022/04/25 11:00:45;;;;;;;8.93;5.47;;;;;;;12.82;78.13;97011.52;1745849;80;21473;-57
2022/04/25 11:03:19;;;;;;;7.62;5.30;;;;;;;12.63;78.42;97007.73;1748479;80;21614;-58
2022/04/25 11:05:48;;;;;;;9.28;6.80;;;;;;;12.52;78.78;97011.31;1755103;80;21082;-58
2022/04/25 11:08:18;;;;;;;;;;;;;;;12.50;78.93;97009.48;1758876;80;21458;-57
2022/04/25 11:10:50;;;;;;;7.50;4.12;;;;;;;12.51;79.11;97009.72;1749448;80;20622;-57
2022/04/25 11:13:18;;;;;;;7.08;4.08;;;;;;;12.50;79.38;97011.40;1754351;80;21019;-57
2022/04/25 11:15:46;;;;;;;6.00;3.63;;;;;;;12.56;79.83;97006.86;1726583;81;21392;-58
2022/04/25 11:18:34;;;;;;;5.58;4.08;;;;;;;12.58;79.50;97007.91;1763590;79;21042;-57
2022/04/25 11:21:07;;;;;;;16.55;7.90;;;;;;;12.62;79.25;97011.02;1744719;80;21195;-57
2022/04/25 11:23:44;;;;;;;12.75;7.35;;;;;;;12.70;79.08;97010.79;1743390;80;21545;-57
2022/04/25 11:26:28;;;;;;;35.05;14.98;;;;;;;12.55;79.28;97007.95;1736911;80;21004;-58
2022/04/25 11:29:08;;;;;;;31.00;12.90;;;;;;;12.60;79.44;97013.25;1746488;81;21009;-57
2022/04/25 11:31:32;;;;;;;59.63;24.57;;;;;;;12.63;78.86;97005.81;1740861;80;21083;-57
2022/04/25 11:34:02;;;;;;;16.48;8.05;;;;;;;12.76;79.08;97010.09;1744617;80;21690;-57
2022/04/25 11:36:29;;;;;;;14.68;13.20;;;;;;;13.10;78.72;97001.95;1746942;82;20870;-57
2022/04/25 11:41:40;;;;;;;7.92;4.03;;;;;;;13.49;77.54;97010.49;1734565;82;21355;-57
2022/04/25 11:44:06;;;;;;;11.63;5.75;;;;;;;13.72;75.54;97002.92;1734383;82;21326;-57
2022/04/25 11:46:34;;;;;;;9.13;4.33;;;;;;;13.95;75.58;97008.95;1733158;82;21787;-57
2022/04/25 11:49:00;;;;;;;4.97;3.20;;;;;;;14.34;76.21;97005.09;1741559;82;20942;-57
2022/04/25 11:51:29;;;;;;;5.62;3.17;;;;;;;14.25;74.48;97017.95;1742048;80;20845;-57
2022/04/25 11:53:58;;;;;;;3.33;2.55;;;;;;;14.21;73.48;97017.03;1725646;82;21003;-57
2022/04/25 11:56:28;;;;;;;4.62;2.58;;;;;;;14.03;74.24;97011.42;1747294;80;20917;-57